PWSweather.com
Personal Weather Stations
Station Observations
KB2SBX
Sugarloaf, Sugarloaf, PA 18249

SugarloafSugarloaf, PA 18249

Lat: 41.0126685, Lon: -76.1082041

Elevation: 1030

Station Type: WS-2080

http://sugarloafpaweather.webng.com/weather.shtml

High Low Average
Temperature 43.5°F6.4°C 35.1°F1.7°C 39.5°F4.2°C
Dew Point 37.6°F3.1°C 19.0°F-7.2°C 30.4°F-0.9°C
Winds 4.7 mph 7.6 kmh Calm Calm 1.0 mph SW1.6 kmh SW
Wind Gusts 18.3 mph29.5 kmh -- 5.0 mph8.0 kmh
Humidity 96% 42% 73%
Pressure 30.00 in1015.9 mb 29.91 in1012.9 mb -
Precipitation 0.25 in6.4 mm - -
Hour Temp Dew Point Humidity Winds Wind Gusts Pressure Precip Precip Rate Daily Precip Total
12:00 AM 38.7°F3.7°C 37.1°F2.8°C 94% Calm Calm 0.7 mph1.1 kmh 29.93 in1013.5 mb 0.00 in0.0 mm 0.00 in/hr0.0 mm/hr 0.25 in6.4 mm
12:15 AM 38.7°F3.7°C 37.1°F2.8°C 94% Calm Calm -- 29.92 in1013.2 mb 0.00 in0.0 mm 0.00 in/hr0.0 mm/hr 0.00 in0.0 mm
12:30 AM 38.3°F3.5°C 36.7°F2.6°C 94% 0.2 mph E0.3 kmh E 1.6 mph2.6 kmh 29.91 in1012.9 mb 0.00 in0.0 mm 0.00 in/hr0.0 mm/hr 0.00 in0.0 mm
12:45 AM 38.3°F3.5°C 36.7°F2.6°C 94% Calm Calm -- 29.91 in1012.9 mb 0.00 in0.0 mm 0.00 in/hr0.0 mm/hr 0.00 in0.0 mm
01:00 AM 38.3°F3.5°C 36.7°F2.6°C 94% Calm Calm 0.7 mph1.1 kmh 29.91 in1012.9 mb 0.00 in0.0 mm 0.00 in/hr0.0 mm/hr 0.00 in0.0 mm
01:15 AM 38.1°F3.4°C 36.6°F2.6°C 94% Calm Calm -- 29.92 in1013.2 mb 0.00 in0.0 mm 0.00 in/hr0.0 mm/hr 0.00 in0.0 mm
01:30 AM 38.1°F3.4°C 36.8°F2.7°C 95% Calm Calm 0.7 mph1.1 kmh 29.93 in1013.5 mb 0.00 in0.0 mm 0.00 in/hr0.0 mm/hr 0.00 in0.0 mm
01:45 AM 38.1°F3.4°C 36.8°F2.7°C 95% 0.1 mph N0.2 kmh N 2.2 mph3.5 kmh 29.92 in1013.2 mb 0.00 in0.0 mm 0.00 in/hr0.0 mm/hr 0.00 in0.0 mm
02:00 AM 38.1°F3.4°C 36.8°F2.7°C 95% Calm Calm -- 29.93 in1013.5 mb 0.00 in0.0 mm 0.00 in/hr0.0 mm/hr 0.00 in0.0 mm
02:15 AM 38.5°F3.6°C 37.2°F2.9°C 95% Calm Calm -- 29.93 in1013.5 mb 0.00 in0.0 mm 0.00 in/hr0.0 mm/hr 0.00 in0.0 mm
02:30 AM 38.5°F3.6°C 37.4°F3.0°C 96% Calm Calm -- 29.93 in1013.5 mb 0.01 in0.3 mm 0.04 in/hr1.0 mm/hr 0.01 in0.3 mm
02:45 AM 38.7°F3.7°C 37.6°F3.1°C 96% Calm Calm 0.7 mph1.1 kmh 29.93 in1013.5 mb 0.01 in0.3 mm 0.00 in/hr0.0 mm/hr 0.01 in0.3 mm
03:00 AM 38.7°F3.7°C 37.6°F3.1°C 96% 0.2 mph W0.3 kmh W 3.8 mph6.1 kmh 29.91 in1012.9 mb 0.01 in0.3 mm 0.00 in/hr0.0 mm/hr 0.01 in0.3 mm
03:15 AM 38.5°F3.6°C 37.4°F3.0°C 96% 0.1 mph SSW0.2 kmh SSW 1.6 mph2.6 kmh 29.93 in1013.5 mb 0.01 in0.3 mm 0.00 in/hr0.0 mm/hr 0.01 in0.3 mm
03:30 AM 38.3°F3.5°C 37.3°F2.9°C 96% 0.1 mph SSE0.2 kmh SSE 1.6 mph2.6 kmh 29.92 in1013.2 mb 0.00 in0.0 mm 0.00 in/hr0.0 mm/hr 0.01 in0.3 mm
03:45 AM 38.3°F3.5°C 37.3°F2.9°C 96% 0.2 mph WSW0.3 kmh WSW 3.1 mph5.0 kmh 29.92 in1013.2 mb 0.00 in0.0 mm 0.00 in/hr0.0 mm/hr 0.01 in0.3 mm
04:00 AM 38.3°F3.5°C 37.3°F2.9°C 96% 1.1 mph WNW1.8 kmh WNW 3.8 mph6.1 kmh 29.93 in1013.5 mb 0.00 in0.0 mm 0.00 in/hr0.0 mm/hr 0.01 in0.3 mm
04:15 AM 38.3°F3.5°C 37.3°F2.9°C 96% 0.9 mph WNW1.4 kmh WNW 6.0 mph9.7 kmh 29.94 in1013.9 mb 0.00 in0.0 mm 0.00 in/hr0.0 mm/hr 0.01 in0.3 mm
04:30 AM 37.9°F3.3°C 36.9°F2.7°C 96% 0.4 mph S0.6 kmh S 3.8 mph6.1 kmh 29.94 in1013.9 mb 0.00 in0.0 mm 0.00 in/hr0.0 mm/hr 0.01 in0.3 mm
04:45 AM 37.9°F3.3°C 36.9°F2.7°C 96% 0.2 mph WSW0.3 kmh WSW 3.8 mph6.1 kmh 29.95 in1014.2 mb 0.00 in0.0 mm 0.00 in/hr0.0 mm/hr 0.01 in0.3 mm
05:00 AM 37.8°F3.2°C 36.7°F2.6°C 96% 0.7 mph WSW1.1 kmh WSW 7.6 mph12.2 kmh 29.95 in1014.2 mb 0.00 in0.0 mm 0.00 in/hr0.0 mm/hr 0.01 in0.3 mm
05:15 AM 37.2°F2.9°C 35.1°F1.7°C 92% 0.6 mph W1.0 kmh W 3.8 mph6.1 kmh 29.95 in1014.2 mb 0.00 in0.0 mm 0.00 in/hr0.0 mm/hr 0.01 in0.3 mm
05:30 AM 36.9°F2.7°C 34.8°F1.6°C 92% 1.2 mph NNW1.9 kmh NNW 5.4 mph8.7 kmh 29.95 in1014.2 mb 0.00 in0.0 mm 0.00 in/hr0.0 mm/hr 0.01 in0.3 mm
05:45 AM 36.7°F2.6°C 34.6°F1.4°C 92% Calm Calm 1.6 mph2.6 kmh 29.95 in1014.2 mb 0.00 in0.0 mm 0.00 in/hr0.0 mm/hr 0.01 in0.3 mm
06:00 AM 36.7°F2.6°C 34.6°F1.4°C 92% 0.9 mph NW1.4 kmh NW 4.5 mph7.2 kmh 29.97 in1014.9 mb 0.00 in0.0 mm 0.00 in/hr0.0 mm/hr 0.01 in0.3 mm
06:15 AM 36.9°F2.7°C 34.8°F1.6°C 92% 1.0 mph SW1.6 kmh SW 4.5 mph7.2 kmh 29.97 in1014.9 mb 0.00 in0.0 mm 0.00 in/hr0.0 mm/hr 0.01 in0.3 mm
06:30 AM 36.7°F2.6°C 34.6°F1.4°C 92% 0.4 mph NW0.6 kmh NW 3.1 mph5.0 kmh 29.98 in1015.2 mb 0.00 in0.0 mm 0.00 in/hr0.0 mm/hr 0.01 in0.3 mm
06:45 AM 36.1°F2.3°C 34.0°F1.1°C 92% 0.7 mph NW1.1 kmh NW 4.5 mph7.2 kmh 29.98 in1015.2 mb 0.00 in0.0 mm 0.00 in/hr0.0 mm/hr 0.01 in0.3 mm
07:00 AM 35.6°F2.0°C 33.2°F0.7°C 91% 0.5 mph N0.8 kmh N 3.1 mph5.0 kmh 29.97 in1014.9 mb 0.00 in0.0 mm 0.00 in/hr0.0 mm/hr 0.01 in0.3 mm
07:15 AM 35.2°F1.8°C 33.2°F0.7°C 92% 0.3 mph NW0.5 kmh NW 2.2 mph3.5 kmh 29.97 in1014.9 mb 0.00 in0.0 mm 0.00 in/hr0.0 mm/hr 0.01 in0.3 mm
07:30 AM 35.1°F1.7°C 33.0°F0.6°C 92% 0.6 mph WNW1.0 kmh WNW 4.5 mph7.2 kmh 29.98 in1015.2 mb 0.00 in0.0 mm 0.00 in/hr0.0 mm/hr 0.01 in0.3 mm
07:45 AM 35.1°F1.7°C 33.0°F0.6°C 92% 1.3 mph NW2.1 kmh NW 4.5 mph7.2 kmh 29.99 in1015.6 mb 0.00 in0.0 mm 0.00 in/hr0.0 mm/hr 0.01 in0.3 mm
08:00 AM 35.1°F1.7°C 33.0°F0.6°C 92% 0.4 mph NW0.6 kmh NW 2.2 mph3.5 kmh 29.99 in1015.6 mb 0.00 in0.0 mm 0.00 in/hr0.0 mm/hr 0.01 in0.3 mm
08:15 AM 35.2°F1.8°C 33.2°F0.7°C 92% 0.6 mph NW1.0 kmh NW 3.8 mph6.1 kmh 29.99 in1015.6 mb 0.00 in0.0 mm 0.00 in/hr0.0 mm/hr 0.01 in0.3 mm
08:30 AM 36.0°F2.2°C 33.6°F0.9°C 91% 1.8 mph NW2.9 kmh NW 6.0 mph9.7 kmh 29.99 in1015.6 mb 0.00 in0.0 mm 0.00 in/hr0.0 mm/hr 0.01 in0.3 mm
08:45 AM 36.9°F2.7°C 34.2°F1.2°C 90% 1.7 mph W2.7 kmh W 6.0 mph9.7 kmh 30.00 in1015.9 mb 0.00 in0.0 mm 0.00 in/hr0.0 mm/hr 0.01 in0.3 mm
09:00 AM 37.6°F3.1°C 35.5°F1.9°C 92% 1.9 mph NW3.1 kmh NW 10.7 mph17.2 kmh 29.99 in1015.6 mb 0.00 in0.0 mm 0.00 in/hr0.0 mm/hr 0.01 in0.3 mm
09:15 AM 38.1°F3.4°C 34.9°F1.6°C 88% 2.1 mph WSW3.4 kmh WSW 4.5 mph7.2 kmh 29.99 in1015.6 mb 0.00 in0.0 mm 0.00 in/hr0.0 mm/hr 0.01 in0.3 mm
09:30 AM 39.4°F4.1°C 34.7°F1.5°C 83% 2.2 mph NW3.5 kmh NW 6.0 mph9.7 kmh 29.99 in1015.6 mb 0.00 in0.0 mm 0.00 in/hr0.0 mm/hr 0.01 in0.3 mm
09:45 AM 40.8°F4.9°C 35.5°F1.9°C 81% 2.4 mph WNW3.9 kmh WNW 7.6 mph12.2 kmh 30.00 in1015.9 mb 0.00 in0.0 mm 0.00 in/hr0.0 mm/hr 0.01 in0.3 mm
10:00 AM 39.6°F4.2°C 33.0°F0.6°C 77% 2.0 mph W3.2 kmh W 5.4 mph8.7 kmh 30.00 in1015.9 mb 0.00 in0.0 mm 0.00 in/hr0.0 mm/hr 0.01 in0.3 mm
10:15 AM 40.5°F4.7°C 33.5°F0.8°C 76% 2.4 mph NW3.9 kmh NW 6.0 mph9.7 kmh 30.00 in1015.9 mb 0.00 in0.0 mm 0.00 in/hr0.0 mm/hr 0.01 in0.3 mm
10:30 AM 41.4°F5.2°C 33.0°F0.6°C 72% 2.1 mph NW3.4 kmh NW 7.6 mph12.2 kmh 29.99 in1015.6 mb 0.00 in0.0 mm 0.00 in/hr0.0 mm/hr 0.01 in0.3 mm
10:45 AM 42.1°F5.6°C 31.9°F-0.1°C 67% 2.7 mph WSW4.3 kmh WSW 6.0 mph9.7 kmh 29.99 in1015.6 mb 0.00 in0.0 mm 0.00 in/hr0.0 mm/hr 0.01 in0.3 mm
11:00 AM 42.6°F5.9°C 30.1°F-1.1°C 61% 2.6 mph WNW4.2 kmh WNW 6.0 mph9.7 kmh 29.99 in1015.6 mb 0.00 in0.0 mm 0.00 in/hr0.0 mm/hr 0.01 in0.3 mm
11:15 AM 42.8°F6.0°C 26.9°F-2.8°C 53% 2.9 mph NW4.7 kmh NW 9.2 mph14.8 kmh 29.98 in1015.2 mb 0.00 in0.0 mm 0.00 in/hr0.0 mm/hr 0.01 in0.3 mm
11:30 AM 43.3°F6.3°C 26.9°F-2.8°C 52% 3.3 mph WNW5.3 kmh WNW 7.6 mph12.2 kmh 29.98 in1015.2 mb 0.00 in0.0 mm 0.00 in/hr0.0 mm/hr 0.01 in0.3 mm
11:45 AM 43.3°F6.3°C 27.8°F-2.3°C 54% 2.6 mph NW4.2 kmh NW 9.2 mph14.8 kmh 29.97 in1014.9 mb 0.01 in0.3 mm 0.04 in/hr1.0 mm/hr 0.01 in0.3 mm
12:00 PM 43.5°F6.4°C 27.5°F-2.5°C 53% 3.0 mph WNW4.8 kmh WNW 8.3 mph13.4 kmh 29.97 in1014.9 mb 0.01 in0.3 mm 0.00 in/hr0.0 mm/hr 0.01 in0.3 mm
12:15 PM 43.0°F6.1°C 26.1°F-3.3°C 51% 3.2 mph W5.1 kmh W 10.7 mph17.2 kmh 29.97 in1014.9 mb 0.01 in0.3 mm 0.00 in/hr0.0 mm/hr 0.01 in0.3 mm
12:30 PM 43.3°F6.3°C 23.4°F-4.8°C 45% 3.3 mph WNW5.3 kmh WNW 9.8 mph15.8 kmh 29.96 in1014.6 mb 0.01 in0.3 mm 0.00 in/hr0.0 mm/hr 0.01 in0.3 mm
12:45 PM 42.8°F6.0°C 21.9°F-5.6°C 43% 2.5 mph W4.0 kmh W 8.3 mph13.4 kmh 29.95 in1014.2 mb 0.00 in0.0 mm 0.00 in/hr0.0 mm/hr 0.01 in0.3 mm
01:00 PM 42.8°F6.0°C 21.9°F-5.6°C 43% 2.9 mph NW4.7 kmh NW 12.1 mph19.5 kmh 29.95 in1014.2 mb 0.00 in0.0 mm 0.00 in/hr0.0 mm/hr 0.01 in0.3 mm
01:15 PM 42.3°F5.7°C 22.5°F-5.3°C 45% 4.7 mph N7.6 kmh N 18.3 mph29.5 kmh 29.95 in1014.2 mb 0.00 in0.0 mm 0.00 in/hr0.0 mm/hr 0.01 in0.3 mm
01:30 PM 42.3°F5.7°C 21.4°F-5.9°C 43% 3.7 mph WNW6.0 kmh WNW 10.7 mph17.2 kmh 29.95 in1014.2 mb 0.00 in0.0 mm 0.00 in/hr0.0 mm/hr 0.01 in0.3 mm
01:45 PM 42.1°F5.6°C 22.3°F-5.4°C 45% 3.4 mph W5.5 kmh W 11.4 mph18.3 kmh 29.94 in1013.9 mb 0.00 in0.0 mm 0.00 in/hr0.0 mm/hr 0.01 in0.3 mm
02:00 PM 41.7°F5.4°C 22.5°F-5.3°C 46% 2.8 mph WSW4.5 kmh WSW 8.3 mph13.4 kmh 29.94 in1013.9 mb 0.00 in0.0 mm 0.00 in/hr0.0 mm/hr 0.01 in0.3 mm
02:15 PM 42.1°F5.6°C 21.8°F-5.7°C 44% 2.9 mph N4.7 kmh N 9.8 mph15.8 kmh 29.93 in1013.5 mb 0.00 in0.0 mm 0.00 in/hr0.0 mm/hr 0.01 in0.3 mm
02:30 PM 42.6°F5.9°C 21.2°F-6.0°C 42% 2.9 mph N4.7 kmh N 9.8 mph15.8 kmh 29.94 in1013.9 mb 0.00 in0.0 mm 0.00 in/hr0.0 mm/hr 0.01 in0.3 mm
02:45 PM 42.3°F5.7°C 21.4°F-5.9°C 43% 1.9 mph NNW3.1 kmh NNW 5.4 mph8.7 kmh 29.93 in1013.5 mb 0.00 in0.0 mm 0.00 in/hr0.0 mm/hr 0.01 in0.3 mm
03:00 PM 42.8°F6.0°C 22.9°F-5.1°C 45% 2.1 mph W3.4 kmh W 6.9 mph11.1 kmh 29.93 in1013.5 mb 0.00 in0.0 mm 0.00 in/hr0.0 mm/hr 0.01 in0.3 mm
03:15 PM 43.2°F6.2°C 22.2°F-5.4°C 43% 2.5 mph WSW4.0 kmh WSW 9.2 mph14.8 kmh 29.94 in1013.9 mb 0.00 in0.0 mm 0.00 in/hr0.0 mm/hr 0.01 in0.3 mm
03:30 PM 43.0°F6.1°C 21.5°F-5.8°C 42% 1.6 mph WSW2.6 kmh WSW 5.4 mph8.7 kmh 29.94 in1013.9 mb 0.00 in0.0 mm 0.00 in/hr0.0 mm/hr 0.01 in0.3 mm
03:45 PM 42.6°F5.9°C 21.2°F-6.0°C 42% 2.7 mph NW4.3 kmh NW 10.7 mph17.2 kmh 29.95 in1014.2 mb 0.00 in0.0 mm 0.00 in/hr0.0 mm/hr 0.01 in0.3 mm
04:00 PM 42.4°F5.8°C 22.1°F-5.5°C 44% 1.4 mph NW2.3 kmh NW 5.4 mph8.7 kmh 29.94 in1013.9 mb 0.00 in0.0 mm 0.00 in/hr0.0 mm/hr 0.01 in0.3 mm
04:15 PM 42.3°F5.7°C 21.4°F-5.9°C 43% 1.8 mph W2.9 kmh W 7.6 mph12.2 kmh 29.94 in1013.9 mb 0.00 in0.0 mm 0.00 in/hr0.0 mm/hr 0.01 in0.3 mm
04:30 PM 41.5°F5.3°C 22.8°F-5.1°C 47% 1.0 mph WSW1.6 kmh WSW 6.0 mph9.7 kmh 29.94 in1013.9 mb 0.00 in0.0 mm 0.00 in/hr0.0 mm/hr 0.01 in0.3 mm
04:45 PM 41.2°F5.1°C 24.0°F-4.4°C 50% 0.3 mph N0.5 kmh N 2.2 mph3.5 kmh 29.94 in1013.9 mb 0.00 in0.0 mm 0.00 in/hr0.0 mm/hr 0.01 in0.3 mm
05:00 PM 41.0°F5.0°C 22.8°F-5.1°C 48% 0.2 mph SE0.3 kmh SE 2.2 mph3.5 kmh 29.94 in1013.9 mb 0.00 in0.0 mm 0.00 in/hr0.0 mm/hr 0.01 in0.3 mm
05:15 PM 40.6°F4.8°C 23.5°F-4.7°C 50% 0.7 mph N1.1 kmh N 3.8 mph6.1 kmh 29.94 in1013.9 mb 0.00 in0.0 mm 0.00 in/hr0.0 mm/hr 0.01 in0.3 mm
05:30 PM 39.9°F4.4°C 23.3°F-4.8°C 51% 1.4 mph NNW2.3 kmh NNW 7.6 mph12.2 kmh 29.94 in1013.9 mb 0.00 in0.0 mm 0.00 in/hr0.0 mm/hr 0.01 in0.3 mm
05:45 PM 39.0°F3.9°C 22.9°F-5.1°C 52% 0.8 mph WNW1.3 kmh WNW 3.8 mph6.1 kmh 29.94 in1013.9 mb 0.00 in0.0 mm 0.00 in/hr0.0 mm/hr 0.01 in0.3 mm
06:00 PM 38.5°F3.6°C 22.4°F-5.3°C 52% 0.4 mph NW0.6 kmh NW 9.2 mph14.8 kmh 29.94 in1013.9 mb 0.00 in0.0 mm 0.00 in/hr0.0 mm/hr 0.01 in0.3 mm
06:15 PM 37.6°F3.1°C 21.6°F-5.8°C 52% 0.3 mph W0.5 kmh W 3.1 mph5.0 kmh 29.95 in1014.2 mb 0.00 in0.0 mm 0.00 in/hr0.0 mm/hr 0.01 in0.3 mm
06:30 PM 36.9°F2.7°C 19.0°F-7.2°C 48% Calm Calm 1.6 mph2.6 kmh 29.95 in1014.2 mb 0.00 in0.0 mm 0.00 in/hr0.0 mm/hr 0.01 in0.3 mm
06:45 PM 36.3°F2.4°C 19.0°F-7.2°C 49% 0.3 mph N0.5 kmh N 2.2 mph3.5 kmh 29.94 in1013.9 mb 0.00 in0.0 mm 0.00 in/hr0.0 mm/hr 0.01 in0.3 mm
07:00 PM 35.6°F2.0°C 18.8°F-7.3°C 50% Calm Calm 0.7 mph1.1 kmh 29.95 in1014.2 mb 0.00 in0.0 mm 0.00 in/hr0.0 mm/hr 0.01 in0.3 mm
07:15 PM 34.9°F1.6°C 18.6°F-7.4°C 51% Calm Calm 1.6 mph2.6 kmh 29.95 in1014.2 mb 0.00 in0.0 mm 0.00 in/hr0.0 mm/hr 0.01 in0.3 mm
07:30 PM 34.7°F1.5°C 18.9°F-7.3°C 52% 0.4 mph N0.6 kmh N 3.1 mph5.0 kmh 29.95 in1014.2 mb 0.00 in0.0 mm 0.00 in/hr0.0 mm/hr 0.01 in0.3 mm
07:45 PM 34.9°F1.6°C 19.5°F-6.9°C 53% 0.3 mph N0.5 kmh N 3.1 mph5.0 kmh 29.96 in1014.6 mb 0.00 in0.0 mm 0.00 in/hr0.0 mm/hr 0.01 in0.3 mm
08:00 PM 34.9°F1.6°C 19.1°F-7.2°C 52% 0.1 mph SE0.2 kmh SE 3.1 mph5.0 kmh 29.96 in1014.6 mb 0.00 in0.0 mm 0.00 in/hr0.0 mm/hr 0.01 in0.3 mm
08:15 PM 35.4°F1.9°C 20.0°F-6.7°C 53% 0.9 mph NW1.4 kmh NW 5.4 mph8.7 kmh 29.95 in1014.2 mb 0.00 in0.0 mm 0.00 in/hr0.0 mm/hr 0.01 in0.3 mm
08:30 PM 35.4°F1.9°C 20.5°F-6.4°C 54% 0.6 mph NW1.0 kmh NW 3.8 mph6.1 kmh 29.96 in1014.6 mb 0.00 in0.0 mm 0.00 in/hr0.0 mm/hr 0.01 in0.3 mm
08:45 PM 35.4°F1.9°C 20.0°F-6.7°C 53% 0.7 mph NNW1.1 kmh NNW 3.8 mph6.1 kmh 29.96 in1014.6 mb 0.00 in0.0 mm 0.00 in/hr0.0 mm/hr 0.01 in0.3 mm
09:00 PM 35.8°F2.1°C 19.4°F-7.0°C 51% 2.0 mph NW3.2 kmh NW 6.0 mph9.7 kmh 29.97 in1014.9 mb 0.00 in0.0 mm 0.00 in/hr0.0 mm/hr 0.01 in0.3 mm
09:15 PM 35.6°F2.0°C 19.3°F-7.1°C 51% 0.6 mph NW1.0 kmh NW 3.1 mph5.0 kmh 29.97 in1014.9 mb 0.00 in0.0 mm 0.00 in/hr0.0 mm/hr 0.01 in0.3 mm
09:30 PM 35.1°F1.7°C 20.5°F-6.4°C 55% 1.3 mph NW2.1 kmh NW 7.6 mph12.2 kmh 29.98 in1015.2 mb 0.00 in0.0 mm 0.00 in/hr0.0 mm/hr 0.01 in0.3 mm
09:45 PM 35.2°F1.8°C 20.3°F-6.5°C 54% 1.4 mph NW2.3 kmh NW 7.6 mph12.2 kmh 29.98 in1015.2 mb 0.00 in0.0 mm 0.00 in/hr0.0 mm/hr 0.01 in0.3 mm
10:00 PM 35.2°F1.8°C 19.8°F-6.8°C 53% 2.0 mph NW3.2 kmh NW 6.9 mph11.1 kmh 29.98 in1015.2 mb 0.00 in0.0 mm 0.00 in/hr0.0 mm/hr 0.01 in0.3 mm
10:15 PM 35.6°F2.0°C 19.7°F-6.8°C 52% 2.9 mph NW4.7 kmh NW 7.6 mph12.2 kmh 29.98 in1015.2 mb 0.00 in0.0 mm 0.00 in/hr0.0 mm/hr 0.01 in0.3 mm
10:30 PM 34.7°F1.5°C 20.2°F-6.6°C 55% 1.4 mph WNW2.3 kmh WNW 5.4 mph8.7 kmh 29.97 in1014.9 mb 0.00 in0.0 mm 0.00 in/hr0.0 mm/hr 0.01 in0.3 mm
10:45 PM 34.5°F1.4°C 19.6°F-6.9°C 54% 1.7 mph N2.7 kmh N 5.4 mph8.7 kmh 29.98 in1015.2 mb 0.00 in0.0 mm 0.00 in/hr0.0 mm/hr 0.01 in0.3 mm
11:00 PM 34.7°F1.5°C 19.3°F-7.1°C 53% 2.7 mph WSW4.3 kmh WSW 10.7 mph17.2 kmh 29.98 in1015.2 mb 0.00 in0.0 mm 0.00 in/hr0.0 mm/hr 0.01 in0.3 mm
11:15 PM 34.2°F1.2°C 18.4°F-7.6°C 52% 1.4 mph N2.3 kmh N 4.5 mph7.2 kmh 29.98 in1015.2 mb 0.00 in0.0 mm 0.00 in/hr0.0 mm/hr 0.01 in0.3 mm
11:30 PM 33.4°F0.8°C 18.6°F-7.4°C 54% 0.8 mph NW1.3 kmh NW 3.8 mph6.1 kmh 29.98 in1015.2 mb 0.00 in0.0 mm 0.00 in/hr0.0 mm/hr 0.01 in0.3 mm
11:45 PM 33.1°F0.6°C 18.3°F-7.6°C 54% 1.0 mph NW1.6 kmh NW 4.5 mph7.2 kmh 29.99 in1015.6 mb 0.00 in0.0 mm 0.00 in/hr0.0 mm/hr 0.01 in0.3 mm